Nearby METAR Reports

 

KHOB - Hobbs, New Mexico, USA
Distance from station: S 40mi, 65km
Updated: Mon, 15-Jul-2024 10:50am MDT

 Wind from W
Wind: W 6 mph , 9 km/h
Temperature: 90°F , 32°C
Dew Point: 59°F , 15°C
Humidity: 36%
Barometer: 30.13 inHg , 1020.3 hPa
Visibility: 10 miles , 16 km
2024/07/15 16:50 KHOB 151650Z 26005KT 10SM 32/15 A3013
KGNC - Seminole, Texas, USA
Distance from station: SE 55mi, 89km
Updated: Mon, 15-Jul-2024 11:35am MDT
Clear
Clear
 Wind from SE
Wind: SE 7 mph , 11 km/h
Temperature: 91°F , 33°C
Dew Point: 61°F , 16°C
Humidity: 36%
Barometer: 30.14 inHg , 1020.7 hPa
Clouds: Clear
Visibility: 10 miles , 16 km
2024/07/15 17:35 KGNC 151735Z AUTO 14006KT 10SM CLR 33/16 A3014 RMK AO2 T03310157
 
KROW - Roswell, New Mexico, USA
Distance from station: W 67mi, 108km
Updated: Mon, 15-Jul-2024 10:51am MDT
Clear
Clear
 Wind from WSW
Wind: WSW 6 mph , 9 km/h
Temperature: 91°F , 33°C
Dew Point: 54°F , 12°C
Humidity: 28%
Barometer: 30.11 inHg , 1019.6 hPa
Clouds: Clear
Visibility: 10 miles , 16 km
2024/07/15 16:51 KROW 151651Z 24005KT 10SM CLR 33/12 A3011 RMK AO2 SLP117 T03330117
KATS - Artesia, New Mexico, USA
Distance from station: WSW 71mi, 114km
Updated: Mon, 15-Jul-2024 11:35am MDT
Clear
Clear
 Wind from varies
Wind: varies 7 mph , 11 km/h, Gust: 14 mph , 22 km/h
Temperature: 93°F , 34°C
Dew Point: 55°F , 13°C
Humidity: 28%
Barometer: 30.11 inHg , 1019.6 hPa
Clouds: Clear
Visibility: 10 miles , 16 km
2024/07/15 17:35 KATS 151735Z AUTO VRB06G12KT 10SM CLR 34/13 A3011 RMK AO2
 
KCVS - Cannon AFB,Clovis, New Mexico, USA
Distance from station: 0 78mi, 125km
Updated: Mon, 15-Jul-2024 10:55am MDT
Few Clouds
Few Clouds
 Wind from WSW
Wind: WSW 6 mph , 9 km/h
Temperature: 88°F , 31°C
Dew Point: 55°F , 13°C
Humidity: 33%
Barometer: 30.14 inHg , 1020.7 hPa
Clouds: Few Clouds
Visibility: 10 miles , 16 km
Cloud details: Few Clouds 18000 ft
2024/07/15 16:55 KCVS 151655Z AUTO 25005KT 10SM FEW180 31/13 A3014 RMK AO2 SLP129 T03100133 $
KE11 - Andrews, Texas, USA
Distance from station: SE 78mi, 126km
Updated: Mon, 15-Jul-2024 11:35am MDT
Clear
Clear
 Wind from WSW
Wind: WSW 5 mph , 7 km/h
Temperature: 91°F , 33°C
Dew Point: 59°F , 15°C
Humidity: 34%
Barometer: 30.10 inHg , 1019.3 hPa
Clouds: Clear
Visibility: 10 miles , 16 km
2024/07/15 17:35 KE11 151735Z AUTO 25004KT 10SM CLR 33/15 A3010 RMK AO2 T03280153
 
KCNM - Carlsbad, New Mexico, USA
Distance from station: SW 82mi, 132km
Updated: Mon, 15-Jul-2024 10:53am MDT
Clear
Clear
 Wind from E
Wind: E 7 mph , 11 km/h
Temperature: 90°F , 32°C
Heat Index: 91°F , 33°C
Dew Point: 63°F , 17°C
Humidity: 41%
Barometer: 30.09 inHg , 1019 hPa
Clouds: Clear
Visibility: 10 miles , 16 km
2024/07/15 16:53 KCNM 151653Z AUTO 10006KT 10SM CLR 32/17 A3009 RMK AO2 SLP123 T03170167
KCVN - Clovis Muni, New Mexico, USA
Distance from station: N 83mi, 133km
Updated: Mon, 15-Jul-2024 10:56am MDT
Clear
Clear
 Wind from SW
Wind: SW 8 mph , 13 km/h
Temperature: 90°F , 32°C
Dew Point: 55°F , 13°C
Humidity: 31%
Barometer: 30.16 inHg , 1021.3 hPa
Clouds: Clear
Visibility: 10 miles , 16 km
2024/07/15 16:56 KCVN 151656Z AUTO 22007KT 10SM CLR 32/13 A3016 RMK AO2 SLP162 T03220128 $
 
KLBB - Lubbock, Texas, USA
Distance from station: ENE 92mi, 149km
Updated: Mon, 15-Jul-2024 10:53am MDT
Partly cloudy
Partly cloudy
 Wind from varies
Wind: varies 5 mph , 7 km/h
Temperature: 91°F , 33°C
Heat Index: 94°F , 34°C
Dew Point: 66°F , 19°C
Humidity: 44%
Barometer: 30.11 inHg , 1019.6 hPa
Clouds: Partly cloudy
Visibility: 10 miles , 16 km
Cloud details: Partly cloudy 25000 ft
2024/07/15 16:53 KLBB 151653Z VRB04KT 10SM SCT250 33/19 A3011 RMK AO2 SLP132 T03280194
KINK - Wink, Texas, USA
Distance from station: S 101mi, 163km
Updated: Tue, 09-Jul-2024 10:53am MDT
NOT Current
Clear
Clear
 Wind from varies
Wind: varies 5 mph , 7 km/h
Temperature: 88°F , 31°C
Heat Index: 88°F , 31°C
Dew Point: 61°F , 16°C
Humidity: 40%
Barometer: 30.09 inHg , 1019 hPa
Clouds: Clear
2024/07/09 16:53 KINK 091653Z AUTO VRB04KT CLR 31/16 A3009 RMK AO2 SLP140 T03060161 $
 
KMAF - Midland, Texas, USA
Distance from station: SE 111mi, 179km
Updated: Tue, 09-Jul-2024 1:57pm MDT
NOT Current
Clear
Clear
 Wind from SE
Wind: SE 3 mph , 6 km/h
Temperature: 88°F , 31°C
Dew Point: 57°F , 14°C
Humidity: 35%
Barometer: 30.06 inHg , 1017.9 hPa
Clouds: Clear
Visibility: 10 miles , 16 km
2024/07/09 19:57 KMAF 091957Z 13003KT 10SM CLR 31/14 A3006 RMK RWY18R
KSRR - Sierra B/Ruidoso, New Mexico, USA
Distance from station: W 127mi, 204km
Updated: Mon, 15-Jul-2024 11:35am MDT
Clear
Clear
 Wind from ESE
Wind: ESE 10 mph , 17 km/h
Temperature: 82°F , 28°C
Dew Point: 37°F , 3°C
Humidity: 20%
Barometer: 30.37 inHg , 1028.4 hPa
Clouds: Clear
Visibility: 10 miles , 16 km
2024/07/15 17:35 KSRR 151735Z AUTO 12009KT 10SM CLR 28/03 A3037 RMK AO2
 
KGDP - Guadalupe Pass, Texas, USA
Distance from station: SW 130mi, 209km
Updated: Sun, 10-Dec-2023 5:51pm MST
NOT Current

 Wind from SW
Wind: SW 31 mph , 50 km/h
Temperature: 41°F , 5°C
Wind Chill: 30°F , -1°C
Dew Point: 9°F , -13°C
Humidity: 26%
Barometer: 30.20 inHg , 1022.7 hPa
Visibility: 10 miles , 16 km
2023/12/11 00:51 KGDP 110051Z AUTO 23027KT 10SM 05/M13 A3020 RMK AO2 PK WND 25038/0000 SLP229 T00501133 $